createdAt,value
2017-02-04T00:00:02.020Z,9.45
2017-02-04T00:01:17.142Z,9.45
2017-02-04T00:02:32.218Z,9.44
2017-02-04T00:03:48.183Z,9.46
2017-02-04T00:05:02.627Z,9.46
2017-02-04T00:06:17.630Z,9.47
2017-02-04T00:07:32.525Z,9.48
2017-02-04T00:08:47.597Z,9.48
2017-02-04T00:10:02.947Z,9.49
2017-02-04T00:11:18.043Z,9.45
2017-02-04T00:12:32.554Z,9.46
2017-02-04T00:13:47.691Z,9.46
2017-02-04T00:15:01.719Z,9.48
2017-02-04T00:16:16.172Z,9.48
2017-02-04T00:17:30.637Z,9.49
2017-02-04T00:18:45.720Z,9.53
2017-02-04T00:19:59.730Z,9.55
2017-02-04T00:21:14.303Z,9.58
2017-02-04T00:22:28.551Z,9.58
2017-02-04T00:23:43.197Z,9.58
2017-02-04T00:24:57.693Z,9.59
2017-02-04T00:26:12.781Z,9.61
2017-02-04T00:27:26.728Z,9.64
2017-02-04T00:28:41.142Z,9.67
2017-02-04T00:29:55.591Z,9.69
2017-02-04T00:31:10.227Z,9.71
2017-02-04T00:32:24.756Z,9.72
2017-02-04T00:33:39.861Z,9.75
2017-02-04T00:34:55.581Z,9.76
2017-02-04T00:36:10.742Z,9.76
2017-02-04T00:37:25.842Z,9.77
2017-02-04T00:38:40.264Z,9.77
2017-02-04T00:39:54.402Z,9.79
2017-02-04T00:41:08.641Z,9.8
2017-02-04T00:42:22.780Z,9.81
2017-02-04T00:43:36.757Z,9.84
2017-02-04T00:44:50.940Z,9.82
2017-02-04T00:46:05.850Z,9.84
2017-02-04T00:47:20.693Z,9.85
2017-02-04T00:48:34.656Z,9.88
2017-02-04T00:49:50.180Z,9.9
2017-02-04T00:51:04.131Z,9.93
2017-02-04T00:52:18.774Z,9.94
2017-02-04T00:53:33.661Z,9.94
2017-02-04T00:54:47.797Z,9.94
2017-02-04T00:56:02.317Z,9.93
2017-02-04T00:57:17.369Z,9.92
2017-02-04T00:58:31.837Z,9.89
2017-02-04T00:59:46.801Z,9.85
2017-02-04T01:05:23.433Z,9.84
2017-02-04T01:06:37.693Z,9.83
2017-02-04T01:08:06.208Z,9.85
2017-02-04T01:09:19.676Z,9.86
2017-02-04T01:10:34.485Z,9.86
2017-02-04T01:11:48.088Z,9.89
2017-02-04T01:13:01.783Z,9.92
2017-02-04T01:14:15.882Z,9.95
2017-02-04T01:15:30.006Z,9.97
2017-02-04T01:16:44.407Z,9.99
2017-02-04T01:17:58.068Z,9.99
2017-02-04T01:19:11.724Z,10
2017-02-04T01:20:25.463Z,9.98
2017-02-04T01:21:39.348Z,9.97
2017-02-04T01:22:53.664Z,9.92
2017-02-04T01:24:22.731Z,9.89
2017-02-04T01:25:36.650Z,9.86
2017-02-04T01:26:50.383Z,9.85
2017-02-04T01:28:04.266Z,9.86
2017-02-04T01:29:17.708Z,9.87
2017-02-04T01:30:31.424Z,9.87
2017-02-04T01:31:44.907Z,9.89
2017-02-04T01:32:59.016Z,9.9
2017-02-04T01:34:42.861Z,9.94
2017-02-04T01:35:56.337Z,9.97
2017-02-04T01:37:10.230Z,9.97
2017-02-04T01:38:23.762Z,9.97
2017-02-04T01:39:37.922Z,9.98
2017-02-04T01:40:51.597Z,9.99
2017-02-04T01:42:05.760Z,10.01
2017-02-04T01:43:19.252Z,10.01
2017-02-04T01:44:33.056Z,10.02
2017-02-04T01:45:47.044Z,9.97
2017-02-04T01:47:10.840Z,9.9
2017-02-04T01:48:24.459Z,9.84
2017-02-04T01:49:38.334Z,9.78
2017-02-04T01:50:52.095Z,9.72
2017-02-04T01:52:05.607Z,9.67
2017-02-04T01:53:19.265Z,9.64
2017-02-04T01:54:33.099Z,9.63
2017-02-04T01:55:46.695Z,9.6
2017-02-04T01:57:00.132Z,9.56
2017-02-04T01:58:13.859Z,9.52
2017-02-04T01:59:27.903Z,9.48
2017-02-04T02:00:41.739Z,9.44
2017-02-04T02:01:55.289Z,9.44
2017-02-04T02:03:08.965Z,9.44
2017-02-04T02:04:22.490Z,9.45
2017-02-04T02:05:36.181Z,9.47
2017-02-04T02:06:50.142Z,9.46
2017-02-04T02:08:03.820Z,9.44
2017-02-04T02:09:17.312Z,9.43
2017-02-04T02:10:31.470Z,9.42
2017-02-04T02:11:45.365Z,9.44
2017-02-04T02:13:00.141Z,9.48
2017-02-04T02:14:14.350Z,9.52
2017-02-04T02:15:28.180Z,9.53
2017-02-04T02:16:42.137Z,9.54
2017-02-04T02:17:55.913Z,9.56
2017-02-04T02:19:09.349Z,9.56
2017-02-04T02:20:23.162Z,9.55
2017-02-04T02:21:37.326Z,9.54
2017-02-04T02:22:53.267Z,9.56
2017-02-04T02:24:07.153Z,9.53
2017-02-04T02:25:21.187Z,9.5
2017-02-04T02:26:34.752Z,9.48
2017-02-04T02:27:48.887Z,9.46
2017-02-04T02:29:03.198Z,9.44
2017-02-04T02:30:17.223Z,9.44
2017-02-04T02:31:30.761Z,9.45
2017-02-04T02:32:44.504Z,9.45
2017-02-04T02:33:58.203Z,9.45
2017-02-04T02:35:11.763Z,9.42
2017-02-04T02:36:25.206Z,9.4
2017-02-04T02:37:38.937Z,9.39
2017-02-04T02:38:52.442Z,9.37
2017-02-04T02:40:06.019Z,9.36
2017-02-04T02:41:20.623Z,9.36
2017-02-04T02:42:34.372Z,9.33
2017-02-04T02:43:48.124Z,9.32
2017-02-04T02:45:02.683Z,9.28
2017-02-04T02:46:16.177Z,9.23
2017-02-04T02:47:29.853Z,9.16
2017-02-04T02:48:43.340Z,9.12
2017-02-04T02:49:57.011Z,9.09
2017-02-04T02:51:10.888Z,9.06
2017-02-04T02:52:24.858Z,9.03
2017-02-04T02:53:38.672Z,9.03
2017-02-04T02:54:52.309Z,9.02
2017-02-04T02:56:06.261Z,9.01
2017-02-04T02:57:19.893Z,9
2017-02-04T02:58:33.405Z,8.99
2017-02-04T02:59:47.342Z,9
2017-02-04T03:01:00.879Z,9
2017-02-04T03:02:14.685Z,8.98
2017-02-04T03:03:28.110Z,8.98
2017-02-04T03:04:41.783Z,8.99
2017-02-04T03:05:55.580Z,9
2017-02-04T03:07:09.148Z,9.01
2017-02-04T03:08:22.963Z,9
2017-02-04T03:09:36.586Z,9.02
2017-02-04T03:10:50.071Z,9.05
2017-02-04T03:12:03.915Z,9.06
2017-02-04T03:13:17.679Z,9.1
2017-02-04T03:14:31.259Z,9.13
2017-02-04T03:15:45.169Z,9.16
2017-02-04T03:16:58.788Z,9.17
2017-02-04T03:18:12.545Z,9.16
2017-02-04T03:19:26.182Z,9.15
2017-02-04T03:20:39.886Z,9.17
2017-02-04T03:21:53.505Z,9.18
2017-02-04T03:23:07.040Z,9.18
2017-02-04T03:24:20.762Z,9.2
2017-02-04T03:25:34.245Z,9.23
2017-02-04T03:26:48.336Z,9.25
2017-02-04T03:28:01.857Z,9.26
2017-02-04T03:29:15.555Z,9.27
2017-02-04T03:30:29.218Z,9.28
2017-02-04T03:31:42.873Z,9.31
2017-02-04T03:32:56.903Z,9.32
2017-02-04T03:34:10.617Z,9.32
2017-02-04T03:35:24.079Z,9.34
2017-02-04T03:36:37.690Z,9.35
2017-02-04T03:37:51.120Z,9.35
2017-02-04T03:39:07.201Z,9.37
2017-02-04T03:40:21.126Z,9.38
2017-02-04T03:41:34.990Z,9.38
2017-02-04T03:42:48.442Z,9.39
2017-02-04T03:44:02.066Z,9.42
2017-02-04T03:45:15.574Z,9.43
2017-02-04T03:46:29.280Z,9.43
2017-02-04T03:47:43.033Z,9.43
2017-02-04T03:48:56.628Z,9.44
2017-02-04T03:50:10.041Z,9.43
2017-02-04T03:51:24.068Z,9.44
2017-02-04T03:52:37.681Z,9.42
2017-02-04T03:53:51.331Z,9.38
2017-02-04T03:55:04.774Z,9.36
2017-02-04T03:56:18.440Z,9.35
2017-02-04T03:57:31.917Z,9.35
2017-02-04T03:58:45.795Z,9.35
2017-02-04T03:59:59.479Z,9.32
2017-02-04T04:01:13.580Z,9.32
2017-02-04T04:02:27.437Z,9.31
2017-02-04T04:03:41.160Z,9.32
2017-02-04T04:04:54.596Z,9.3
2017-02-04T04:06:08.499Z,9.28
2017-02-04T04:07:22.000Z,9.25
2017-02-04T04:08:35.703Z,9.21
2017-02-04T04:09:49.110Z,9.18
2017-02-04T04:11:02.772Z,9.14
2017-02-04T04:12:16.669Z,9.11
2017-02-04T04:13:30.614Z,9.08
2017-02-04T04:14:44.178Z,9.03
2017-02-04T04:15:57.761Z,8.97
2017-02-04T04:17:11.175Z,8.95
2017-02-04T04:18:25.316Z,8.93
2017-02-04T04:19:38.861Z,8.93
2017-02-04T04:20:52.687Z,8.93
2017-02-04T04:22:06.093Z,8.93
2017-02-04T04:23:20.261Z,8.93
2017-02-04T04:24:33.791Z,8.91
2017-02-04T04:25:47.443Z,8.91
2017-02-04T04:27:01.014Z,8.91
2017-02-04T04:28:15.215Z,8.91
2017-02-04T04:29:28.928Z,8.9
2017-02-04T04:30:42.566Z,8.9
2017-02-04T04:31:56.278Z,8.87
2017-02-04T04:33:10.037Z,8.87
2017-02-04T04:34:23.460Z,8.87
2017-02-04T04:35:37.513Z,8.87
2017-02-04T04:36:51.325Z,8.88
2017-02-04T04:38:05.017Z,8.89
2017-02-04T04:39:18.782Z,8.92
2017-02-04T04:40:32.523Z,8.97
2017-02-04T04:41:46.049Z,9.01
2017-02-04T04:42:59.738Z,9.07
2017-02-04T04:44:13.182Z,9.1
2017-02-04T04:45:26.819Z,9.14
2017-02-04T04:46:40.571Z,9.18
2017-02-04T04:47:54.566Z,9.21
2017-02-04T04:49:08.812Z,9.22
2017-02-04T04:50:22.486Z,9.24
2017-02-04T04:51:36.035Z,9.26
2017-02-04T04:52:49.708Z,9.27
2017-02-04T04:54:03.207Z,9.28
2017-02-04T04:55:19.239Z,9.27
2017-02-04T04:56:32.702Z,9.25
2017-02-04T04:57:46.292Z,9.22
2017-02-04T04:58:59.918Z,9.17
2017-02-04T05:00:13.514Z,9.13
2017-02-04T05:01:27.368Z,9.1
2017-02-04T05:02:41.017Z,9.09
2017-02-04T05:03:54.538Z,9.06
2017-02-04T05:05:08.148Z,9.04
2017-02-04T05:06:21.746Z,9.03
2017-02-04T05:07:35.336Z,9.02
2017-02-04T05:08:49.085Z,9.01
2017-02-04T05:10:03.844Z,8.99
2017-02-04T05:11:17.508Z,8.96
2017-02-04T05:12:31.207Z,8.91
2017-02-04T05:13:44.697Z,8.87
2017-02-04T05:14:59.379Z,8.82
2017-02-04T05:16:12.859Z,8.78
2017-02-04T05:17:27.226Z,8.74
2017-02-04T05:18:40.692Z,8.7
2017-02-04T05:19:54.368Z,8.68
2017-02-04T05:21:08.021Z,8.67
2017-02-04T05:22:21.764Z,8.67
2017-02-04T05:23:35.862Z,8.67
2017-02-04T05:24:49.768Z,8.66
2017-02-04T05:26:03.714Z,8.66
2017-02-04T05:27:17.394Z,8.64
2017-02-04T05:28:30.962Z,8.63
2017-02-04T05:29:45.107Z,8.59
2017-02-04T05:30:58.566Z,8.59
2017-02-04T05:32:12.460Z,8.59
2017-02-04T05:33:26.154Z,8.59
2017-02-04T05:34:39.853Z,8.57
2017-02-04T05:35:53.533Z,8.55
2017-02-04T05:37:07.459Z,8.53
2017-02-04T05:38:21.788Z,8.54
2017-02-04T05:39:35.649Z,8.55
2017-02-04T05:40:49.227Z,8.56
2017-02-04T05:42:03.243Z,8.59
2017-02-04T05:43:16.721Z,8.62
2017-02-04T05:44:30.304Z,8.66
2017-02-04T05:45:43.968Z,8.67
2017-02-04T05:46:57.968Z,8.7
2017-02-04T05:48:11.677Z,8.72
2017-02-04T05:49:25.337Z,8.75
2017-02-04T05:50:38.893Z,8.77
2017-02-04T05:52:12.605Z,8.79
2017-02-04T05:53:26.242Z,8.83
2017-02-04T05:54:39.824Z,8.86
2017-02-04T05:55:53.405Z,8.9
2017-02-04T05:57:06.941Z,8.93
2017-02-04T05:58:21.296Z,8.97
2017-02-04T05:59:35.031Z,9.02
2017-02-04T06:00:48.663Z,9.03
2017-02-04T06:02:02.354Z,9.05
2017-02-04T06:03:16.245Z,9.05
2017-02-04T06:04:29.851Z,9.04
2017-02-04T06:05:43.919Z,9.01
2017-02-04T06:06:57.450Z,8.99
2017-02-04T06:08:11.134Z,8.96
2017-02-04T06:09:25.331Z,8.96
2017-02-04T06:10:38.934Z,8.93
2017-02-04T06:11:55.656Z,8.89
2017-02-04T06:13:09.135Z,8.84
2017-02-04T06:14:23.216Z,8.8
2017-02-04T06:15:36.816Z,8.76
2017-02-04T06:16:50.700Z,8.69
2017-02-04T06:18:04.508Z,8.64
2017-02-04T06:19:18.797Z,8.57
2017-02-04T06:20:32.351Z,8.49
2017-02-04T06:21:46.417Z,8.46
2017-02-04T06:23:00.119Z,8.45
2017-02-04T06:24:14.013Z,8.44
2017-02-04T06:25:27.455Z,8.41
2017-02-04T06:26:41.559Z,8.38
2017-02-04T06:27:54.962Z,8.34
2017-02-04T06:29:08.965Z,8.32
2017-02-04T06:30:22.641Z,8.31
2017-02-04T06:31:36.330Z,8.29
2017-02-04T06:32:49.820Z,8.26
2017-02-04T06:34:03.844Z,8.25
2017-02-04T06:35:17.526Z,8.22
2017-02-04T06:36:32.154Z,8.18
2017-02-04T06:37:46.084Z,8.15
2017-02-04T06:39:00.377Z,8.12
2017-02-04T06:40:14.292Z,8.1
2017-02-04T06:41:28.232Z,8.06
2017-02-04T06:42:42.451Z,8.05
2017-02-04T06:43:56.075Z,8.04
2017-02-04T06:45:09.843Z,8.04
2017-02-04T06:46:23.482Z,8.04
2017-02-04T06:47:37.407Z,8.05
2017-02-04T06:48:52.102Z,8.09
2017-02-04T06:50:05.745Z,8.12
2017-02-04T06:51:19.448Z,8.14
2017-02-04T06:52:33.225Z,8.15
2017-02-04T06:53:47.121Z,8.15
2017-02-04T06:55:01.301Z,8.14
2017-02-04T06:56:15.806Z,8.14
2017-02-04T06:57:29.541Z,8.12
2017-02-04T06:58:44.026Z,8.1
2017-02-04T06:59:57.463Z,8.08
2017-02-04T07:01:11.307Z,8.07
2017-02-04T07:02:40.789Z,8.03
2017-02-04T07:03:54.333Z,8.02
2017-02-04T07:05:08.031Z,8.01
2017-02-04T07:06:21.719Z,7.99
2017-02-04T07:07:35.705Z,7.95
2017-02-04T07:08:49.165Z,7.95
2017-02-04T07:10:02.977Z,7.95
2017-02-04T07:11:16.913Z,7.97
2017-02-04T07:12:54.948Z,8
2017-02-04T07:14:09.068Z,8.03
2017-02-04T07:15:23.556Z,8.06
2017-02-04T07:16:37.587Z,8.09
2017-02-04T07:17:51.503Z,8.09
2017-02-04T07:19:05.315Z,8.09
2017-02-04T07:20:19.773Z,8.09
2017-02-04T07:21:34.047Z,8.12
2017-02-04T07:23:02.416Z,8.13
2017-02-04T07:24:16.619Z,8.1
2017-02-04T07:25:31.158Z,8.08
2017-02-04T07:26:45.481Z,8.08
2017-02-04T07:27:59.205Z,8.03
2017-02-04T07:29:15.550Z,8.03
2017-02-04T07:30:29.139Z,8
2017-02-04T07:31:43.844Z,7.98
2017-02-04T07:32:57.808Z,7.96
2017-02-04T07:34:12.621Z,7.94
2017-02-04T07:35:26.270Z,7.93
2017-02-04T07:36:40.392Z,7.92
2017-02-04T07:37:54.478Z,7.94
2017-02-04T07:39:08.475Z,7.93
2017-02-04T07:40:37.741Z,8
2017-02-04T07:41:51.662Z,8.03
2017-02-04T07:43:05.319Z,8.08
2017-02-04T07:44:19.042Z,8.15
2017-02-04T07:45:32.967Z,8.22
2017-02-04T07:46:46.414Z,8.26
2017-02-04T07:48:00.397Z,8.33
2017-02-04T07:49:14.150Z,8.37
2017-02-04T07:50:28.255Z,8.43
2017-02-04T07:51:41.998Z,8.49
2017-02-04T07:52:55.845Z,8.54
2017-02-04T07:54:09.267Z,8.56
2017-02-04T07:55:37.469Z,8.55
2017-02-04T07:56:51.265Z,8.56
2017-02-04T07:58:05.167Z,8.54
2017-02-04T07:59:18.749Z,8.5
2017-02-04T08:00:32.480Z,8.5
2017-02-04T08:01:46.109Z,8.52
2017-02-04T08:03:00.349Z,8.54
2017-02-04T08:04:14.021Z,8.56
2017-02-04T08:05:27.742Z,8.58
2017-02-04T08:06:41.363Z,8.6
2017-02-04T08:07:54.859Z,8.6
2017-02-04T08:09:08.998Z,8.61
2017-02-04T08:10:22.684Z,8.64
2017-02-04T08:11:36.315Z,8.68
2017-02-04T08:12:49.753Z,8.7
2017-02-04T08:14:03.804Z,8.73
2017-02-04T08:15:17.884Z,8.77
2017-02-04T08:16:31.844Z,8.78
2017-02-04T08:17:45.261Z,8.78
2017-02-04T08:18:59.480Z,8.77
2017-02-04T08:20:13.197Z,8.74
2017-02-04T08:21:27.047Z,8.75
2017-02-04T08:22:41.136Z,8.77
2017-02-04T08:23:55.116Z,8.8
2017-02-04T08:25:09.059Z,8.81
2017-02-04T08:26:22.690Z,8.82
2017-02-04T08:27:36.611Z,8.83
2017-02-04T08:28:50.251Z,8.82
2017-02-04T08:30:03.993Z,8.81
2017-02-04T08:31:17.784Z,8.81
2017-02-04T08:32:31.480Z,8.83
2017-02-04T08:33:46.008Z,8.84
2017-02-04T08:34:59.601Z,8.83
2017-02-04T08:36:13.501Z,8.85
2017-02-04T08:37:26.917Z,8.86
2017-02-04T08:38:40.561Z,8.84
2017-02-04T08:39:54.284Z,8.87
2017-02-04T08:41:08.174Z,8.9
2017-02-04T08:42:21.847Z,8.91
2017-02-04T08:43:35.470Z,8.96
2017-02-04T08:44:48.897Z,8.99
2017-02-04T08:46:05.381Z,9.02
2017-02-04T08:47:18.980Z,9.05
2017-02-04T08:48:32.950Z,9.09
2017-02-04T08:49:46.605Z,9.16
2017-02-04T08:51:02.767Z,9.18
2017-02-04T08:52:18.098Z,9.2
2017-02-04T08:53:32.827Z,9.25
2017-02-04T08:54:46.629Z,9.26
2017-02-04T08:56:00.348Z,9.3
2017-02-04T08:57:13.980Z,9.32
2017-02-04T08:58:27.994Z,9.34
2017-02-04T08:59:42.429Z,9.38
2017-02-04T09:00:56.987Z,9.39
2017-02-04T09:02:13.696Z,9.43
2017-02-04T09:03:27.767Z,9.46
2017-02-04T09:04:42.721Z,9.52
2017-02-04T09:05:56.353Z,9.58
2017-02-04T09:07:10.237Z,9.63
2017-02-04T09:08:23.726Z,9.65
2017-02-04T09:09:38.016Z,9.65
2017-02-04T09:10:51.749Z,9.64
2017-02-04T09:12:05.400Z,9.64
2017-02-04T09:13:19.270Z,9.66
2017-02-04T09:14:33.010Z,9.68
2017-02-04T09:15:46.696Z,9.74
2017-02-04T09:17:00.786Z,9.79
2017-02-04T09:18:14.529Z,9.83
2017-02-04T09:19:28.215Z,9.86
2017-02-04T09:20:41.701Z,9.93
2017-02-04T09:21:55.369Z,9.99
2017-02-04T09:23:09.178Z,10.08
2017-02-04T09:24:23.099Z,10.13
2017-02-04T09:25:36.985Z,10.19
2017-02-04T09:27:09.847Z,10.25
2017-02-04T09:28:23.485Z,10.31
2017-02-04T09:29:37.234Z,10.35
2017-02-04T09:30:51.663Z,10.37
2017-02-04T09:32:07.488Z,10.4
2017-02-04T09:33:21.068Z,10.45
2017-02-04T09:34:35.672Z,10.48
2017-02-04T09:35:49.644Z,10.51
2017-02-04T09:37:03.349Z,10.54
2017-02-04T09:38:17.140Z,10.53
2017-02-04T09:39:30.856Z,10.53
2017-02-04T09:40:44.598Z,10.54
2017-02-04T09:41:58.469Z,10.54
2017-02-04T09:43:12.659Z,10.58
2017-02-04T09:44:26.311Z,10.59
2017-02-04T09:45:39.806Z,10.61
2017-02-04T09:47:15.348Z,10.64
2017-02-04T09:48:29.682Z,10.65
2017-02-04T09:49:44.271Z,10.68
2017-02-04T09:50:58.619Z,10.71
2017-02-04T09:52:12.137Z,10.76
2017-02-04T09:53:25.843Z,10.79
2017-02-04T09:54:39.578Z,10.83
2017-02-04T09:56:10.769Z,10.86
2017-02-04T09:57:24.781Z,10.89
2017-02-04T09:58:38.551Z,10.94
2017-02-04T09:59:52.480Z,10.96
2017-02-04T10:01:07.239Z,10.96
2017-02-04T10:02:21.034Z,10.96
2017-02-04T10:03:40.408Z,10.96
2017-02-04T10:04:54.564Z,10.96
2017-02-04T10:06:08.329Z,10.96
2017-02-04T10:07:21.826Z,10.95
2017-02-04T10:08:35.546Z,10.91
2017-02-04T10:09:49.536Z,10.87
2017-02-04T10:11:03.930Z,10.86
2017-02-04T10:12:17.886Z,10.85
2017-02-04T10:13:31.633Z,10.85
2017-02-04T10:14:45.079Z,10.85
2017-02-04T10:16:12.907Z,10.84
2017-02-04T10:17:26.765Z,10.85
2017-02-04T10:18:40.265Z,10.87
2017-02-04T10:19:54.052Z,10.91
2017-02-04T10:21:08.127Z,10.92
2017-02-04T10:22:22.309Z,10.91
2017-02-04T10:23:36.604Z,10.9
2017-02-04T10:24:52.281Z,10.92
2017-02-04T10:26:05.935Z,10.92
2017-02-04T10:27:19.599Z,10.95
2017-02-04T10:28:34.151Z,10.95
2017-02-04T10:29:48.318Z,10.94
2017-02-04T10:31:01.857Z,10.94
2017-02-04T10:32:15.489Z,10.94
2017-02-04T10:33:29.072Z,10.96
2017-02-04T10:36:11.452Z,11.1
2017-02-04T10:37:25.836Z,11.16
2017-02-04T10:38:39.529Z,11.19
2017-02-04T10:39:52.972Z,11.22
2017-02-04T10:41:06.607Z,11.26
2017-02-04T10:42:20.183Z,11.28
2017-02-04T10:43:33.974Z,11.26
2017-02-04T10:44:48.105Z,11.26
2017-02-04T10:46:02.268Z,11.25
2017-02-04T10:47:15.763Z,11.28
2017-02-04T10:48:29.787Z,11.3
2017-02-04T10:49:43.486Z,11.32
2017-02-04T10:50:57.328Z,11.33
2017-02-04T10:52:10.753Z,11.31
2017-02-04T10:53:24.397Z,11.29
2017-02-04T10:54:37.880Z,11.3
2017-02-04T10:55:52.687Z,11.3
2017-02-04T10:57:06.235Z,11.29
2017-02-04T10:58:19.964Z,11.3
2017-02-04T10:59:33.663Z,11.33
2017-02-04T11:00:47.708Z,11.34
2017-02-04T11:02:01.212Z,11.35
2017-02-04T11:03:15.473Z,11.38
2017-02-04T11:04:29.064Z,11.44
2017-02-04T11:05:42.969Z,11.52
2017-02-04T11:06:57.098Z,11.6
2017-02-04T11:08:10.764Z,11.66
2017-02-04T11:09:24.381Z,11.7
2017-02-04T11:10:38.350Z,11.71
2017-02-04T11:11:51.886Z,11.71
2017-02-04T11:13:05.886Z,11.74
2017-02-04T11:14:19.403Z,11.74
2017-02-04T11:15:33.148Z,11.76
2017-02-04T11:16:46.686Z,11.8
2017-02-04T11:18:00.643Z,11.87
2017-02-04T11:19:14.598Z,11.92
2017-02-04T11:20:30.393Z,11.96
2017-02-04T11:21:43.947Z,11.99
2017-02-04T11:22:57.638Z,12
2017-02-04T11:24:11.647Z,12.01
2017-02-04T11:26:38.999Z,12.12
2017-02-04T11:27:52.910Z,12.15
2017-02-04T11:29:07.019Z,12.2
2017-02-04T11:30:22.048Z,12.24
2017-02-04T11:31:35.901Z,12.3
2017-02-04T11:32:49.512Z,12.33
2017-02-04T11:34:03.049Z,12.37
2017-02-04T11:35:16.834Z,12.38
2017-02-04T11:36:30.486Z,12.37
2017-02-04T11:39:22.616Z,12.33
2017-02-04T11:40:39.945Z,12.34
2017-02-04T11:41:54.250Z,12.31
2017-02-04T11:43:09.852Z,12.28
2017-02-04T11:44:26.140Z,12.28
2017-02-04T11:45:41.381Z,12.27
2017-02-04T11:46:56.109Z,12.28
2017-02-04T11:48:11.524Z,12.27
2017-02-04T11:49:26.148Z,12.28
2017-02-04T11:50:41.488Z,12.28
2017-02-04T11:51:56.720Z,12.28
2017-02-04T11:53:12.637Z,12.24
2017-02-04T11:54:26.657Z,12.22
2017-02-04T11:55:41.913Z,12.21
2017-02-04T11:56:55.940Z,12.19
2017-02-04T11:58:10.160Z,12.21
2017-02-04T11:59:25.934Z,12.22
2017-02-04T12:00:40.662Z,12.23
2017-02-04T12:01:55.918Z,12.25
2017-02-04T12:03:11.550Z,12.23
2017-02-04T12:04:25.915Z,12.2
2017-02-04T12:05:41.106Z,12.17
2017-02-04T12:07:15.293Z,12.12
2017-02-04T12:08:30.366Z,12.1
2017-02-04T12:09:46.305Z,12.07
2017-02-04T12:11:00.839Z,12.08
2017-02-04T12:12:15.896Z,12.02
2017-02-04T12:13:29.919Z,11.99
2017-02-04T12:14:44.379Z,11.96
2017-02-04T12:15:59.370Z,11.97
2017-02-04T12:17:13.668Z,11.96
2017-02-04T12:18:28.667Z,11.97
2017-02-04T12:19:43.319Z,11.97
2017-02-04T12:20:57.630Z,11.99
2017-02-04T12:22:11.877Z,11.98
2017-02-04T12:23:25.911Z,11.97
2017-02-04T12:24:40.979Z,11.95
2017-02-04T12:25:54.958Z,11.96
2017-02-04T12:27:09.932Z,11.97
2017-02-04T12:28:24.368Z,11.99
2017-02-04T12:29:39.473Z,12.02
2017-02-04T12:30:53.938Z,12.03
2017-02-04T12:32:08.602Z,12.02
2017-02-04T12:33:22.938Z,12.01
2017-02-04T12:34:38.134Z,12.02
2017-02-04T12:35:52.444Z,12.05
2017-02-04T12:37:09.474Z,12.06
2017-02-04T12:38:25.440Z,12.09
2017-02-04T12:39:43.155Z,12.1
2017-02-04T12:40:59.086Z,12.12
2017-02-04T12:42:14.697Z,12.17
2017-02-04T12:43:29.126Z,12.21
2017-02-04T12:44:44.240Z,12.25
2017-02-04T12:46:13.020Z,12.31
2017-02-04T12:47:28.607Z,12.36
2017-02-04T12:48:43.746Z,12.4
2017-02-04T12:49:58.239Z,12.41
2017-02-04T12:51:29.379Z,12.43
2017-02-04T12:52:44.690Z,12.44
2017-02-04T12:53:58.758Z,12.47
2017-02-04T12:55:13.843Z,12.51
2017-02-04T12:56:28.782Z,12.54
2017-02-04T12:57:44.094Z,12.58
2017-02-04T12:58:58.947Z,12.6
2017-02-04T13:00:14.213Z,12.63
2017-02-04T13:01:29.126Z,12.65
2017-02-04T13:02:44.824Z,12.66
2017-02-04T13:03:59.368Z,12.68
2017-02-04T13:05:13.756Z,12.7
2017-02-04T13:06:29.115Z,12.72
2017-02-04T13:07:43.650Z,12.74
2017-02-04T13:08:58.398Z,12.74
2017-02-04T13:10:12.961Z,12.77
2017-02-04T13:11:28.486Z,12.77
2017-02-04T13:12:44.684Z,12.8
2017-02-04T13:13:59.588Z,12.83
2017-02-04T13:15:15.238Z,12.85
2017-02-04T13:16:29.740Z,12.88
2017-02-04T13:17:44.732Z,12.92
2017-02-04T13:18:59.207Z,12.94
2017-02-04T13:20:14.045Z,12.97
2017-02-04T13:21:29.757Z,12.97
2017-02-04T13:22:47.249Z,12.96
2017-02-04T13:24:03.075Z,12.95
2017-02-04T13:25:20.047Z,12.93
2017-02-04T13:26:35.560Z,12.92
2017-02-04T13:27:49.640Z,12.9
2017-02-04T13:29:04.787Z,12.86
2017-02-04T13:30:20.286Z,12.84
2017-02-04T13:31:34.298Z,12.81
2017-02-04T13:32:50.396Z,12.81
2017-02-04T13:34:05.622Z,12.81
2017-02-04T13:35:20.134Z,12.81
2017-02-04T13:36:36.318Z,12.8
2017-02-04T13:37:51.354Z,12.81
2017-02-04T13:39:05.845Z,12.8
2017-02-04T13:40:20.279Z,12.78
2017-02-04T13:41:34.984Z,12.73
2017-02-04T13:42:55.822Z,12.71
2017-02-04T13:44:10.359Z,12.71
2017-02-04T13:45:24.981Z,12.7
2017-02-04T13:46:38.991Z,12.73
2017-02-04T13:47:53.992Z,12.74
2017-02-04T13:49:09.360Z,12.76
2017-02-04T13:50:24.327Z,12.75
2017-02-04T13:51:40.015Z,12.74
2017-02-04T13:52:55.157Z,12.77
2017-02-04T13:54:09.419Z,12.79
2017-02-04T13:55:24.340Z,12.79
2017-02-04T13:56:38.823Z,12.79
2017-02-04T13:57:56.911Z,12.74
2017-02-04T13:59:11.302Z,12.64
2017-02-04T14:00:26.295Z,12.56
2017-02-04T14:01:41.123Z,12.5
2017-02-04T14:03:03.626Z,12.43
2017-02-04T14:04:20.338Z,12.38
2017-02-04T14:05:36.255Z,12.29
2017-02-04T14:06:50.319Z,12.2
2017-02-04T14:08:05.814Z,12.09
2017-02-04T14:09:20.996Z,12.01
2017-02-04T14:10:37.131Z,11.94
2017-02-04T14:11:53.817Z,11.88
2017-02-04T14:13:10.415Z,11.85
2017-02-04T14:14:25.878Z,11.84
2017-02-04T14:15:41.477Z,11.82
2017-02-04T14:16:56.503Z,11.82
2017-02-04T14:18:10.689Z,11.84
2017-02-04T14:19:26.408Z,11.88
2017-02-04T14:20:41.971Z,11.9
2017-02-04T14:21:56.090Z,11.9
2017-02-04T14:23:10.925Z,11.9
2017-02-04T14:24:25.564Z,11.86
2017-02-04T14:25:39.728Z,11.87
2017-02-04T14:26:55.294Z,11.85
2017-02-04T14:28:09.933Z,11.84
2017-02-04T14:29:24.661Z,11.81
2017-02-04T14:30:41.059Z,11.79
2017-02-04T14:31:55.921Z,11.75
2017-02-04T14:33:10.507Z,11.72
2017-02-04T14:34:27.334Z,11.72
2017-02-04T14:35:49.933Z,11.7
2017-02-04T14:37:07.816Z,11.67
2017-02-04T14:38:25.582Z,11.63
2017-02-04T14:39:41.032Z,11.6
2017-02-04T14:40:54.761Z,11.55
2017-02-04T14:42:09.163Z,11.52
2017-02-04T14:43:24.747Z,11.5
2017-02-04T14:44:44.218Z,11.49
2017-02-04T14:45:58.405Z,11.49
2017-02-04T14:47:11.961Z,11.48
2017-02-04T14:48:26.303Z,11.41
2017-02-04T14:49:39.780Z,11.34
2017-02-04T14:50:53.313Z,11.3
2017-02-04T14:52:06.816Z,11.27
2017-02-04T14:53:20.982Z,11.24
2017-02-04T14:54:36.600Z,11.2
2017-02-04T14:55:50.046Z,11.15
2017-02-04T14:57:04.018Z,11.09
2017-02-04T14:58:17.584Z,11.02
2017-02-04T14:59:32.078Z,10.92
2017-02-04T15:00:45.856Z,10.81
2017-02-04T15:01:59.575Z,10.71
2017-02-04T15:03:13.793Z,10.65
2017-02-04T15:04:27.426Z,10.6
2017-02-04T15:05:41.405Z,10.53
2017-02-04T15:06:55.708Z,10.48
2017-02-04T15:08:09.197Z,10.42
2017-02-04T15:09:22.927Z,10.37
2017-02-04T15:10:36.426Z,10.31
2017-02-04T15:11:50.169Z,10.24
2017-02-04T15:13:04.518Z,10.21
2017-02-04T15:14:18.594Z,10.18
2017-02-04T15:15:34.453Z,10.13
2017-02-04T15:16:48.018Z,10.09
2017-02-04T15:18:01.560Z,10.04
2017-02-04T15:19:15.643Z,9.99
2017-02-04T15:20:29.288Z,9.96
2017-02-04T15:21:42.800Z,9.94
2017-02-04T15:22:56.425Z,9.89
2017-02-04T15:24:10.000Z,9.86
2017-02-04T15:25:24.634Z,9.83
2017-02-04T15:26:38.286Z,9.78
2017-02-04T15:27:51.876Z,9.75
2017-02-04T15:29:05.344Z,9.75
2017-02-04T15:30:18.977Z,9.74
2017-02-04T15:31:32.705Z,9.74
2017-02-04T15:32:46.754Z,9.77
2017-02-04T15:34:00.308Z,9.81
2017-02-04T15:35:13.911Z,9.86
2017-02-04T15:36:27.366Z,9.85
2017-02-04T15:37:41.277Z,9.83
2017-02-04T15:38:55.119Z,9.83
2017-02-04T15:40:09.135Z,9.85
2017-02-04T15:41:22.899Z,9.87
2017-02-04T15:42:36.894Z,9.92
2017-02-04T15:43:50.676Z,9.94
2017-02-04T15:45:04.230Z,9.95
2017-02-04T15:46:17.736Z,9.99
2017-02-04T15:47:31.278Z,10.05
2017-02-04T15:48:44.981Z,10.11
2017-02-04T15:49:58.904Z,10.18
2017-02-04T15:51:12.900Z,10.23
2017-02-04T15:52:26.895Z,10.27
2017-02-04T15:53:40.355Z,10.29
2017-02-04T15:54:53.906Z,10.29
2017-02-04T15:56:07.557Z,10.29
2017-02-04T15:57:21.089Z,10.26
2017-02-04T15:58:34.931Z,10.22
2017-02-04T15:59:48.894Z,10.2
2017-02-04T16:01:02.523Z,10.12
2017-02-04T16:02:17.849Z,10.07
2017-02-04T16:03:31.866Z,10.03
2017-02-04T16:04:45.796Z,10.01
2017-02-04T16:05:59.656Z,9.96
2017-02-04T16:07:13.693Z,9.89
2017-02-04T16:08:27.439Z,9.84
2017-02-04T16:09:41.597Z,9.78
2017-02-04T16:10:55.151Z,9.73
2017-02-04T16:12:09.229Z,9.67
2017-02-04T16:13:22.769Z,9.67
2017-02-04T16:14:37.126Z,9.65
2017-02-04T16:15:50.578Z,9.64
2017-02-04T16:17:04.103Z,9.64
2017-02-04T16:18:17.731Z,9.68
2017-02-04T16:19:31.656Z,9.7
2017-02-04T16:20:45.979Z,9.72
2017-02-04T16:22:00.069Z,9.74
2017-02-04T16:23:14.309Z,9.77
2017-02-04T16:24:28.336Z,9.79
2017-02-04T16:25:42.506Z,9.82
2017-02-04T16:26:56.435Z,9.83
2017-02-04T16:28:10.059Z,9.81
2017-02-04T16:29:24.530Z,9.84
2017-02-04T16:30:38.884Z,9.87
2017-02-04T16:31:54.617Z,9.86